sensor_id;sensor_type;location;lat;lon;timestamp;temperature;humidity
27803;DHT22;15182;48.174;11.562;2023-11-18T00:01:38;9.80;99.90
27803;DHT22;15182;48.174;11.562;2023-11-18T00:04:07;9.80;99.90
27803;DHT22;15182;48.174;11.562;2023-11-18T00:06:43;9.80;99.90
27803;DHT22;15182;48.174;11.562;2023-11-18T00:09:11;9.80;99.90
27803;DHT22;15182;48.174;11.562;2023-11-18T00:11:41;9.80;99.90
27803;DHT22;15182;48.174;11.562;2023-11-18T00:14:09;9.80;99.90
27803;DHT22;15182;48.174;11.562;2023-11-18T00:16:37;9.70;99.90
27803;DHT22;15182;48.174;11.562;2023-11-18T00:19:05;9.70;99.90
27803;DHT22;15182;48.174;11.562;2023-11-18T00:21:35;9.70;99.90
27803;DHT22;15182;48.174;11.562;2023-11-18T00:24:05;9.70;99.90
27803;DHT22;15182;48.174;11.562;2023-11-18T00:26:34;9.70;99.90
27803;DHT22;15182;48.174;11.562;2023-11-18T00:29:03;9.70;99.90
27803;DHT22;15182;48.174;11.562;2023-11-18T00:31:31;9.70;99.90
27803;DHT22;15182;48.174;11.562;2023-11-18T00:33:59;9.70;99.90
27803;DHT22;15182;48.174;11.562;2023-11-18T00:36:27;9.70;99.90
27803;DHT22;15182;48.174;11.562;2023-11-18T00:38:55;9.70;99.90
27803;DHT22;15182;48.174;11.562;2023-11-18T00:41:24;9.70;99.90
27803;DHT22;15182;48.174;11.562;2023-11-18T00:43:52;9.60;99.90
27803;DHT22;15182;48.174;11.562;2023-11-18T00:46:21;9.70;99.90
27803;DHT22;15182;48.174;11.562;2023-11-18T00:48:49;9.60;99.90
27803;DHT22;15182;48.174;11.562;2023-11-18T00:51:17;9.70;99.90
27803;DHT22;15182;48.174;11.562;2023-11-18T00:53:45;9.70;99.90
27803;DHT22;15182;48.174;11.562;2023-11-18T00:56:15;9.60;99.90
27803;DHT22;15182;48.174;11.562;2023-11-18T00:58:45;9.60;99.90
27803;DHT22;15182;48.174;11.562;2023-11-18T01:01:13;9.60;99.90
27803;DHT22;15182;48.174;11.562;2023-11-18T01:03:44;9.60;99.90
27803;DHT22;15182;48.174;11.562;2023-11-18T01:06:12;9.60;99.90
27803;DHT22;15182;48.174;11.562;2023-11-18T01:08:43;9.60;99.90
27803;DHT22;15182;48.174;11.562;2023-11-18T01:11:15;9.60;99.90
27803;DHT22;15182;48.174;11.562;2023-11-18T01:13:46;9.60;99.90
27803;DHT22;15182;48.174;11.562;2023-11-18T01:16:14;9.60;99.90
27803;DHT22;15182;48.174;11.562;2023-11-18T01:18:42;9.60;99.90
27803;DHT22;15182;48.174;11.562;2023-11-18T01:21:12;9.60;99.90
27803;DHT22;15182;48.174;11.562;2023-11-18T01:23:40;9.50;99.90
27803;DHT22;15182;48.174;11.562;2023-11-18T01:26:11;9.50;99.90
27803;DHT22;15182;48.174;11.562;2023-11-18T01:28:39;9.50;99.90
27803;DHT22;15182;48.174;11.562;2023-11-18T01:31:11;9.50;99.90
27803;DHT22;15182;48.174;11.562;2023-11-18T01:33:40;9.50;99.90
27803;DHT22;15182;48.174;11.562;2023-11-18T01:36:09;9.50;99.90
27803;DHT22;15182;48.174;11.562;2023-11-18T01:38:37;9.50;99.90
27803;DHT22;15182;48.174;11.562;2023-11-18T01:41:06;9.50;99.90
27803;DHT22;15182;48.174;11.562;2023-11-18T01:43:35;9.50;99.90
27803;DHT22;15182;48.174;11.562;2023-11-18T01:46:05;9.50;99.90
27803;DHT22;15182;48.174;11.562;2023-11-18T01:48:38;9.50;99.90
27803;DHT22;15182;48.174;11.562;2023-11-18T01:51:09;9.50;99.90
27803;DHT22;15182;48.174;11.562;2023-11-18T01:53:38;9.50;99.90
27803;DHT22;15182;48.174;11.562;2023-11-18T01:56:07;9.50;99.90
27803;DHT22;15182;48.174;11.562;2023-11-18T01:58:37;9.50;99.90
27803;DHT22;15182;48.174;11.562;2023-11-18T02:01:07;9.50;99.90
27803;DHT22;15182;48.174;11.562;2023-11-18T02:03:37;9.50;99.90
27803;DHT22;15182;48.174;11.562;2023-11-18T02:06:09;9.50;99.90
27803;DHT22;15182;48.174;11.562;2023-11-18T02:08:37;9.50;99.90
27803;DHT22;15182;48.174;11.562;2023-11-18T02:11:14;9.50;99.90
27803;DHT22;15182;48.174;11.562;2023-11-18T02:13:48;9.50;99.90
27803;DHT22;15182;48.174;11.562;2023-11-18T02:16:19;9.50;99.90
27803;DHT22;15182;48.174;11.562;2023-11-18T02:18:49;9.50;99.90
27803;DHT22;15182;48.174;11.562;2023-11-18T02:21:20;9.50;99.90
27803;DHT22;15182;48.174;11.562;2023-11-18T02:23:49;9.50;99.90
27803;DHT22;15182;48.174;11.562;2023-11-18T02:26:22;9.50;99.90
27803;DHT22;15182;48.174;11.562;2023-11-18T02:28:51;9.50;99.90
27803;DHT22;15182;48.174;11.562;2023-11-18T02:31:23;9.50;99.90
27803;DHT22;15182;48.174;11.562;2023-11-18T02:34:01;9.50;99.90
27803;DHT22;15182;48.174;11.562;2023-11-18T02:36:39;9.40;99.90
27803;DHT22;15182;48.174;11.562;2023-11-18T02:39:14;9.40;99.90
27803;DHT22;15182;48.174;11.562;2023-11-18T02:41:52;9.40;99.90
27803;DHT22;15182;48.174;11.562;2023-11-18T02:44:22;9.40;99.90
27803;DHT22;15182;48.174;11.562;2023-11-18T02:46:51;9.40;99.90
27803;DHT22;15182;48.174;11.562;2023-11-18T02:49:19;9.40;99.90
27803;DHT22;15182;48.174;11.562;2023-11-18T02:51:47;9.40;99.90
27803;DHT22;15182;48.174;11.562;2023-11-18T02:54:15;9.40;99.90
27803;DHT22;15182;48.174;11.562;2023-11-18T02:56:43;9.50;99.90
27803;DHT22;15182;48.174;11.562;2023-11-18T02:59:12;9.40;99.90
27803;DHT22;15182;48.174;11.562;2023-11-18T03:01:40;9.40;99.90
27803;DHT22;15182;48.174;11.562;2023-11-18T03:04:07;9.40;99.90
27803;DHT22;15182;48.174;11.562;2023-11-18T03:06:36;9.40;99.90
27803;DHT22;15182;48.174;11.562;2023-11-18T03:09:04;9.40;99.90
27803;DHT22;15182;48.174;11.562;2023-11-18T03:11:33;9.40;99.90
27803;DHT22;15182;48.174;11.562;2023-11-18T03:14:01;9.40;99.90
27803;DHT22;15182;48.174;11.562;2023-11-18T03:16:32;9.40;99.90
27803;DHT22;15182;48.174;11.562;2023-11-18T03:19:00;9.40;99.90
27803;DHT22;15182;48.174;11.562;2023-11-18T03:21:28;9.40;99.90
27803;DHT22;15182;48.174;11.562;2023-11-18T03:23:56;9.40;99.90
27803;DHT22;15182;48.174;11.562;2023-11-18T03:26:24;9.50;99.90
27803;DHT22;15182;48.174;11.562;2023-11-18T03:28:54;9.50;99.90
27803;DHT22;15182;48.174;11.562;2023-11-18T03:31:22;9.50;99.90
27803;DHT22;15182;48.174;11.562;2023-11-18T03:33:51;9.50;99.90
27803;DHT22;15182;48.174;11.562;2023-11-18T03:36:19;9.50;99.90
27803;DHT22;15182;48.174;11.562;2023-11-18T03:38:47;9.50;99.90
27803;DHT22;15182;48.174;11.562;2023-11-18T03:41:15;9.50;99.90
27803;DHT22;15182;48.174;11.562;2023-11-18T03:43:43;9.50;99.90
27803;DHT22;15182;48.174;11.562;2023-11-18T03:46:11;9.50;99.90
27803;DHT22;15182;48.174;11.562;2023-11-18T03:48:39;9.50;99.90
27803;DHT22;15182;48.174;11.562;2023-11-18T03:51:08;9.50;99.90
27803;DHT22;15182;48.174;11.562;2023-11-18T03:53:36;9.50;99.90
27803;DHT22;15182;48.174;11.562;2023-11-18T03:56:05;9.50;99.90
27803;DHT22;15182;48.174;11.562;2023-11-18T03:58:33;9.40;99.90
27803;DHT22;15182;48.174;11.562;2023-11-18T04:01:01;9.50;99.90
27803;DHT22;15182;48.174;11.562;2023-11-18T04:03:29;9.50;99.90
27803;DHT22;15182;48.174;11.562;2023-11-18T04:05:58;9.40;99.90
27803;DHT22;15182;48.174;11.562;2023-11-18T04:08:27;9.50;99.90
27803;DHT22;15182;48.174;11.562;2023-11-18T04:10:55;9.40;99.90
27803;DHT22;15182;48.174;11.562;2023-11-18T04:13:23;9.40;99.90
27803;DHT22;15182;48.174;11.562;2023-11-18T04:15:51;9.40;99.90
27803;DHT22;15182;48.174;11.562;2023-11-18T04:18:18;9.40;99.90
27803;DHT22;15182;48.174;11.562;2023-11-18T04:20:47;9.40;99.90
27803;DHT22;15182;48.174;11.562;2023-11-18T04:23:15;9.40;99.90
27803;DHT22;15182;48.174;11.562;2023-11-18T04:25:44;9.40;99.90
27803;DHT22;15182;48.174;11.562;2023-11-18T04:28:12;9.50;99.90
27803;DHT22;15182;48.174;11.562;2023-11-18T04:30:40;9.50;99.90
27803;DHT22;15182;48.174;11.562;2023-11-18T04:33:08;9.50;99.90
27803;DHT22;15182;48.174;11.562;2023-11-18T04:35:35;9.50;99.90
27803;DHT22;15182;48.174;11.562;2023-11-18T04:38:03;9.50;99.90
27803;DHT22;15182;48.174;11.562;2023-11-18T04:40:31;9.50;99.90
27803;DHT22;15182;48.174;11.562;2023-11-18T04:43:03;9.50;99.90
27803;DHT22;15182;48.174;11.562;2023-11-18T04:45:31;9.50;99.90
27803;DHT22;15182;48.174;11.562;2023-11-18T04:47:58;9.50;99.90
27803;DHT22;15182;48.174;11.562;2023-11-18T04:50:26;9.50;99.90
27803;DHT22;15182;48.174;11.562;2023-11-18T04:52:54;9.50;99.90
27803;DHT22;15182;48.174;11.562;2023-11-18T04:55:23;9.50;99.90
27803;DHT22;15182;48.174;11.562;2023-11-18T04:57:52;9.50;99.90
27803;DHT22;15182;48.174;11.562;2023-11-18T05:00:22;9.50;99.90
27803;DHT22;15182;48.174;11.562;2023-11-18T05:02:51;9.50;99.90
27803;DHT22;15182;48.174;11.562;2023-11-18T05:05:19;9.60;99.90
27803;DHT22;15182;48.174;11.562;2023-11-18T05:07:47;9.60;99.90
27803;DHT22;15182;48.174;11.562;2023-11-18T05:10:15;9.60;99.90
27803;DHT22;15182;48.174;11.562;2023-11-18T05:12:44;9.60;99.90
27803;DHT22;15182;48.174;11.562;2023-11-18T05:15:22;9.60;99.90
27803;DHT22;15182;48.174;11.562;2023-11-18T05:17:51;9.60;99.90
27803;DHT22;15182;48.174;11.562;2023-11-18T05:20:20;9.60;99.90
27803;DHT22;15182;48.174;11.562;2023-11-18T05:22:48;9.60;99.90
27803;DHT22;15182;48.174;11.562;2023-11-18T05:25:16;9.60;99.90
27803;DHT22;15182;48.174;11.562;2023-11-18T05:27:44;9.50;99.90
27803;DHT22;15182;48.174;11.562;2023-11-18T05:30:12;9.50;99.90
27803;DHT22;15182;48.174;11.562;2023-11-18T05:32:41;9.50;99.90
27803;DHT22;15182;48.174;11.562;2023-11-18T05:35:09;9.50;99.90
27803;DHT22;15182;48.174;11.562;2023-11-18T05:37:38;9.50;99.90
27803;DHT22;15182;48.174;11.562;2023-11-18T05:40:08;9.50;99.90
27803;DHT22;15182;48.174;11.562;2023-11-18T05:42:38;9.50;99.90
27803;DHT22;15182;48.174;11.562;2023-11-18T05:45:08;9.50;99.90
27803;DHT22;15182;48.174;11.562;2023-11-18T05:47:45;9.50;99.90
27803;DHT22;15182;48.174;11.562;2023-11-18T05:50:13;9.50;99.90
27803;DHT22;15182;48.174;11.562;2023-11-18T05:52:41;9.60;99.90
27803;DHT22;15182;48.174;11.562;2023-11-18T05:55:09;9.60;99.90
27803;DHT22;15182;48.174;11.562;2023-11-18T05:57:37;9.50;99.90
27803;DHT22;15182;48.174;11.562;2023-11-18T06:00:06;9.60;99.90
27803;DHT22;15182;48.174;11.562;2023-11-18T06:02:38;9.60;99.90
27803;DHT22;15182;48.174;11.562;2023-11-18T06:05:08;9.60;99.90
27803;DHT22;15182;48.174;11.562;2023-11-18T06:07:38;9.60;99.90
27803;DHT22;15182;48.174;11.562;2023-11-18T06:10:09;9.50;99.90
27803;DHT22;15182;48.174;11.562;2023-11-18T06:12:38;9.50;99.90
27803;DHT22;15182;48.174;11.562;2023-11-18T06:15:07;9.50;99.90
27803;DHT22;15182;48.174;11.562;2023-11-18T06:17:40;9.50;99.90
27803;DHT22;15182;48.174;11.562;2023-11-18T06:20:13;9.50;99.90
27803;DHT22;15182;48.174;11.562;2023-11-18T06:22:43;9.50;99.90
27803;DHT22;15182;48.174;11.562;2023-11-18T06:25:11;9.50;99.90
27803;DHT22;15182;48.174;11.562;2023-11-18T06:27:39;9.50;99.90
27803;DHT22;15182;48.174;11.562;2023-11-18T06:30:07;9.50;99.90
27803;DHT22;15182;48.174;11.562;2023-11-18T06:32:38;9.50;99.90
27803;DHT22;15182;48.174;11.562;2023-11-18T06:35:07;9.50;99.90
27803;DHT22;15182;48.174;11.562;2023-11-18T06:37:36;9.50;99.90
27803;DHT22;15182;48.174;11.562;2023-11-18T06:40:05;9.50;99.90
27803;DHT22;15182;48.174;11.562;2023-11-18T06:42:42;9.50;99.90
27803;DHT22;15182;48.174;11.562;2023-11-18T06:45:13;9.50;99.90
27803;DHT22;15182;48.174;11.562;2023-11-18T06:47:41;9.60;99.90
27803;DHT22;15182;48.174;11.562;2023-11-18T06:50:10;9.60;99.90
27803;DHT22;15182;48.174;11.562;2023-11-18T06:52:41;9.60;99.90
27803;DHT22;15182;48.174;11.562;2023-11-18T06:55:09;9.60;99.90
27803;DHT22;15182;48.174;11.562;2023-11-18T06:57:37;9.60;99.90
27803;DHT22;15182;48.174;11.562;2023-11-18T07:00:07;9.60;99.90
27803;DHT22;15182;48.174;11.562;2023-11-18T07:02:36;9.70;99.90
27803;DHT22;15182;48.174;11.562;2023-11-18T07:05:04;9.70;99.90
27803;DHT22;15182;48.174;11.562;2023-11-18T07:07:32;9.70;99.90
27803;DHT22;15182;48.174;11.562;2023-11-18T07:10:02;9.70;99.90
27803;DHT22;15182;48.174;11.562;2023-11-18T07:12:32;9.70;99.90
27803;DHT22;15182;48.174;11.562;2023-11-18T07:15:04;9.70;99.90
27803;DHT22;15182;48.174;11.562;2023-11-18T07:17:32;9.70;99.90
27803;DHT22;15182;48.174;11.562;2023-11-18T07:20:01;9.80;99.90
27803;DHT22;15182;48.174;11.562;2023-11-18T07:22:32;9.80;99.90
27803;DHT22;15182;48.174;11.562;2023-11-18T07:25:02;9.80;99.90
27803;DHT22;15182;48.174;11.562;2023-11-18T07:27:34;9.80;99.90
27803;DHT22;15182;48.174;11.562;2023-11-18T07:30:02;9.80;99.90
27803;DHT22;15182;48.174;11.562;2023-11-18T07:32:36;9.80;99.90
27803;DHT22;15182;48.174;11.562;2023-11-18T07:35:10;9.90;99.90
27803;DHT22;15182;48.174;11.562;2023-11-18T07:37:38;9.90;99.90
27803;DHT22;15182;48.174;11.562;2023-11-18T07:40:08;9.90;99.90
27803;DHT22;15182;48.174;11.562;2023-11-18T07:42:38;9.90;99.90
27803;DHT22;15182;48.174;11.562;2023-11-18T07:45:07;9.90;99.90
27803;DHT22;15182;48.174;11.562;2023-11-18T07:47:43;9.90;99.90
27803;DHT22;15182;48.174;11.562;2023-11-18T07:50:12;9.90;99.90
27803;DHT22;15182;48.174;11.562;2023-11-18T07:52:40;9.90;99.90
27803;DHT22;15182;48.174;11.562;2023-11-18T07:55:09;9.90;99.90
27803;DHT22;15182;48.174;11.562;2023-11-18T07:57:39;10.00;99.90
27803;DHT22;15182;48.174;11.562;2023-11-18T08:00:07;10.00;99.90
27803;DHT22;15182;48.174;11.562;2023-11-18T08:02:42;10.00;99.90
27803;DHT22;15182;48.174;11.562;2023-11-18T08:05:11;10.00;99.90
27803;DHT22;15182;48.174;11.562;2023-11-18T08:07:41;10.00;99.90
27803;DHT22;15182;48.174;11.562;2023-11-18T08:10:12;10.10;99.90
27803;DHT22;15182;48.174;11.562;2023-11-18T08:12:45;10.10;99.90
27803;DHT22;15182;48.174;11.562;2023-11-18T08:15:14;10.10;99.90
27803;DHT22;15182;48.174;11.562;2023-11-18T08:17:41;10.20;99.90
27803;DHT22;15182;48.174;11.562;2023-11-18T08:20:10;10.20;99.90
27803;DHT22;15182;48.174;11.562;2023-11-18T08:22:41;10.20;99.90
27803;DHT22;15182;48.174;11.562;2023-11-18T08:25:12;10.20;99.90
27803;DHT22;15182;48.174;11.562;2023-11-18T08:27:41;10.20;99.90
27803;DHT22;15182;48.174;11.562;2023-11-18T08:30:10;10.20;99.90
27803;DHT22;15182;48.174;11.562;2023-11-18T08:32:40;10.30;99.90
27803;DHT22;15182;48.174;11.562;2023-11-18T08:35:10;10.30;99.90
27803;DHT22;15182;48.174;11.562;2023-11-18T08:37:40;10.30;99.90
27803;DHT22;15182;48.174;11.562;2023-11-18T08:40:09;10.30;99.90
27803;DHT22;15182;48.174;11.562;2023-11-18T08:42:42;10.30;99.90
27803;DHT22;15182;48.174;11.562;2023-11-18T08:45:15;10.30;99.90
27803;DHT22;15182;48.174;11.562;2023-11-18T08:47:45;10.30;99.90
27803;DHT22;15182;48.174;11.562;2023-11-18T08:50:13;10.40;99.90
27803;DHT22;15182;48.174;11.562;2023-11-18T08:52:43;10.40;99.90
27803;DHT22;15182;48.174;11.562;2023-11-18T08:55:14;10.40;99.90
27803;DHT22;15182;48.174;11.562;2023-11-18T08:57:47;10.40;99.90
27803;DHT22;15182;48.174;11.562;2023-11-18T09:00:19;10.40;99.90
27803;DHT22;15182;48.174;11.562;2023-11-18T09:03:01;10.50;99.90
27803;DHT22;15182;48.174;11.562;2023-11-18T09:05:32;10.50;99.90
27803;DHT22;15182;48.174;11.562;2023-11-18T09:08:02;10.50;99.90
27803;DHT22;15182;48.174;11.562;2023-11-18T09:10:33;10.60;99.90
27803;DHT22;15182;48.174;11.562;2023-11-18T09:13:01;10.60;99.90
27803;DHT22;15182;48.174;11.562;2023-11-18T09:15:30;10.60;99.90
27803;DHT22;15182;48.174;11.562;2023-11-18T09:17:57;10.60;99.90
27803;DHT22;15182;48.174;11.562;2023-11-18T09:20:26;10.60;99.90
27803;DHT22;15182;48.174;11.562;2023-11-18T09:22:55;10.70;99.90
27803;DHT22;15182;48.174;11.562;2023-11-18T09:25:24;10.70;99.90
27803;DHT22;15182;48.174;11.562;2023-11-18T09:27:53;10.70;99.90
27803;DHT22;15182;48.174;11.562;2023-11-18T09:30:21;10.80;99.90
27803;DHT22;15182;48.174;11.562;2023-11-18T09:32:50;10.80;99.90
27803;DHT22;15182;48.174;11.562;2023-11-18T09:35:19;10.90;99.90
27803;DHT22;15182;48.174;11.562;2023-11-18T09:37:47;10.90;99.90
27803;DHT22;15182;48.174;11.562;2023-11-18T09:40:17;11.00;99.90
27803;DHT22;15182;48.174;11.562;2023-11-18T09:42:49;11.10;99.90
27803;DHT22;15182;48.174;11.562;2023-11-18T09:45:18;11.20;99.90
27803;DHT22;15182;48.174;11.562;2023-11-18T09:47:47;11.20;99.90
27803;DHT22;15182;48.174;11.562;2023-11-18T09:50:17;11.30;99.90
27803;DHT22;15182;48.174;11.562;2023-11-18T09:52:48;11.40;99.70
27803;DHT22;15182;48.174;11.562;2023-11-18T09:55:25;11.40;99.60
27803;DHT22;15182;48.174;11.562;2023-11-18T09:58:03;11.50;99.40
27803;DHT22;15182;48.174;11.562;2023-11-18T10:00:36;11.50;99.40
27803;DHT22;15182;48.174;11.562;2023-11-18T10:03:09;11.50;99.40
27803;DHT22;15182;48.174;11.562;2023-11-18T10:05:42;11.50;99.40
27803;DHT22;15182;48.174;11.562;2023-11-18T10:08:10;11.60;99.40
27803;DHT22;15182;48.174;11.562;2023-11-18T10:10:38;11.70;99.30
27803;DHT22;15182;48.174;11.562;2023-11-18T10:13:11;11.80;99.20
27803;DHT22;15182;48.174;11.562;2023-11-18T10:15:49;11.90;99.10
27803;DHT22;15182;48.174;11.562;2023-11-18T10:18:18;12.00;99.20
27803;DHT22;15182;48.174;11.562;2023-11-18T10:20:50;12.10;99.00
27803;DHT22;15182;48.174;11.562;2023-11-18T10:23:20;12.20;99.10
27803;DHT22;15182;48.174;11.562;2023-11-18T10:25:49;12.30;98.90
27803;DHT22;15182;48.174;11.562;2023-11-18T10:28:23;12.40;98.50
27803;DHT22;15182;48.174;11.562;2023-11-18T10:30:56;12.60;98.20
27803;DHT22;15182;48.174;11.562;2023-11-18T10:33:25;12.60;98.10
27803;DHT22;15182;48.174;11.562;2023-11-18T10:35:57;12.70;98.30
27803;DHT22;15182;48.174;11.562;2023-11-18T10:38:29;12.90;98.00
27803;DHT22;15182;48.174;11.562;2023-11-18T10:40:58;13.00;97.90
27803;DHT22;15182;48.174;11.562;2023-11-18T10:43:27;13.20;97.50
27803;DHT22;15182;48.174;11.562;2023-11-18T10:46:08;13.30;97.30
27803;DHT22;15182;48.174;11.562;2023-11-18T10:48:40;13.50;96.70
27803;DHT22;15182;48.174;11.562;2023-11-18T10:51:09;13.60;96.90
27803;DHT22;15182;48.174;11.562;2023-11-18T10:53:40;13.80;96.70
27803;DHT22;15182;48.174;11.562;2023-11-18T10:56:19;14.00;96.50
27803;DHT22;15182;48.174;11.562;2023-11-18T10:58:53;14.10;96.30
27803;DHT22;15182;48.174;11.562;2023-11-18T11:01:29;14.30;96.00
27803;DHT22;15182;48.174;11.562;2023-11-18T11:03:58;14.40;95.10
27803;DHT22;15182;48.174;11.562;2023-11-18T11:06:27;14.50;95.60
27803;DHT22;15182;48.174;11.562;2023-11-18T11:08:57;14.70;95.60
27803;DHT22;15182;48.174;11.562;2023-11-18T11:11:30;14.80;95.80
27803;DHT22;15182;48.174;11.562;2023-11-18T11:14:01;15.10;95.00
27803;DHT22;15182;48.174;11.562;2023-11-18T11:16:40;15.30;95.00
27803;DHT22;15182;48.174;11.562;2023-11-18T11:19:15;15.50;93.80
27803;DHT22;15182;48.174;11.562;2023-11-18T11:21:52;15.70;93.10
27803;DHT22;15182;48.174;11.562;2023-11-18T11:24:31;15.70;92.60
27803;DHT22;15182;48.174;11.562;2023-11-18T11:27:13;15.70;92.00
27803;DHT22;15182;48.174;11.562;2023-11-18T11:29:59;15.60;91.70
27803;DHT22;15182;48.174;11.562;2023-11-18T11:32:43;15.60;91.70
27803;DHT22;15182;48.174;11.562;2023-11-18T11:35:18;15.40;91.40
27803;DHT22;15182;48.174;11.562;2023-11-18T11:37:48;15.30;91.40
27803;DHT22;15182;48.174;11.562;2023-11-18T11:40:16;15.10;91.60
27803;DHT22;15182;48.174;11.562;2023-11-18T11:42:50;15.00;91.50
27803;DHT22;15182;48.174;11.562;2023-11-18T11:45:22;14.90;91.60
27803;DHT22;15182;48.174;11.562;2023-11-18T11:47:57;14.80;91.30
27803;DHT22;15182;48.174;11.562;2023-11-18T11:50:53;14.70;91.00
27803;DHT22;15182;48.174;11.562;2023-11-18T11:53:32;14.50;90.80
27803;DHT22;15182;48.174;11.562;2023-11-18T11:56:06;14.40;91.10
27803;DHT22;15182;48.174;11.562;2023-11-18T11:58:41;14.30;91.30
27803;DHT22;15182;48.174;11.562;2023-11-18T12:01:16;14.10;91.40
27803;DHT22;15182;48.174;11.562;2023-11-18T12:03:52;14.00;91.40
27803;DHT22;15182;48.174;11.562;2023-11-18T12:06:24;13.90;91.60
27803;DHT22;15182;48.174;11.562;2023-11-18T12:08:53;13.90;91.70
27803;DHT22;15182;48.174;11.562;2023-11-18T12:11:21;13.80;91.70
27803;DHT22;15182;48.174;11.562;2023-11-18T12:14:03;13.70;92.20
27803;DHT22;15182;48.174;11.562;2023-11-18T12:16:59;13.60;91.60
27803;DHT22;15182;48.174;11.562;2023-11-18T12:19:36;13.50;91.60
27803;DHT22;15182;48.174;11.562;2023-11-18T12:22:11;13.40;91.70
27803;DHT22;15182;48.174;11.562;2023-11-18T12:28:14;13.30;91.30
27803;DHT22;15182;48.174;11.562;2023-11-18T12:30:47;13.20;91.70
27803;DHT22;15182;48.174;11.562;2023-11-18T12:34:01;13.20;92.40
27803;DHT22;15182;48.174;11.562;2023-11-18T12:40:30;13.10;91.90
27803;DHT22;15182;48.174;11.562;2023-11-18T12:43:15;13.00;92.00
27803;DHT22;15182;48.174;11.562;2023-11-18T12:46:07;13.00;92.20
27803;DHT22;15182;48.174;11.562;2023-11-18T12:48:49;13.00;92.00
27803;DHT22;15182;48.174;11.562;2023-11-18T12:51:18;12.90;92.00
27803;DHT22;15182;48.174;11.562;2023-11-18T12:53:49;12.90;92.20
27803;DHT22;15182;48.174;11.562;2023-11-18T12:56:21;12.90;92.30
27803;DHT22;15182;48.174;11.562;2023-11-18T12:58:50;12.90;92.10
27803;DHT22;15182;48.174;11.562;2023-11-18T13:01:19;12.80;92.20
27803;DHT22;15182;48.174;11.562;2023-11-18T13:03:46;12.80;92.30
27803;DHT22;15182;48.174;11.562;2023-11-18T13:06:14;12.80;92.20
27803;DHT22;15182;48.174;11.562;2023-11-18T13:08:43;12.80;92.30
27803;DHT22;15182;48.174;11.562;2023-11-18T13:11:12;12.80;92.40
27803;DHT22;15182;48.174;11.562;2023-11-18T13:13:43;12.80;92.40
27803;DHT22;15182;48.174;11.562;2023-11-18T13:16:12;12.80;92.40
27803;DHT22;15182;48.174;11.562;2023-11-18T13:18:43;12.80;92.30
27803;DHT22;15182;48.174;11.562;2023-11-18T13:21:14;12.80;92.30
27803;DHT22;15182;48.174;11.562;2023-11-18T13:23:45;12.70;92.20
27803;DHT22;15182;48.174;11.562;2023-11-18T13:26:14;12.70;92.00
27803;DHT22;15182;48.174;11.562;2023-11-18T13:28:45;12.70;92.00
27803;DHT22;15182;48.174;11.562;2023-11-18T13:31:13;12.70;91.90
27803;DHT22;15182;48.174;11.562;2023-11-18T13:33:43;12.60;92.10
27803;DHT22;15182;48.174;11.562;2023-11-18T13:36:11;12.60;92.20
27803;DHT22;15182;48.174;11.562;2023-11-18T13:38:40;12.60;92.30
27803;DHT22;15182;48.174;11.562;2023-11-18T13:41:10;12.60;92.20
27803;DHT22;15182;48.174;11.562;2023-11-18T13:43:44;12.60;92.10
27803;DHT22;15182;48.174;11.562;2023-11-18T13:46:13;12.50;91.90
27803;DHT22;15182;48.174;11.562;2023-11-18T13:48:41;12.50;92.30
27803;DHT22;15182;48.174;11.562;2023-11-18T13:51:16;12.50;92.30
27803;DHT22;15182;48.174;11.562;2023-11-18T13:53:45;12.50;92.40
27803;DHT22;15182;48.174;11.562;2023-11-18T13:56:14;12.50;92.40
27803;DHT22;15182;48.174;11.562;2023-11-18T13:58:44;12.50;92.70
27803;DHT22;15182;48.174;11.562;2023-11-18T14:01:12;12.40;92.30
27803;DHT22;15182;48.174;11.562;2023-11-18T14:03:40;12.40;92.50
27803;DHT22;15182;48.174;11.562;2023-11-18T14:06:10;12.40;92.50
27803;DHT22;15182;48.174;11.562;2023-11-18T14:08:39;12.40;92.80
27803;DHT22;15182;48.174;11.562;2023-11-18T14:11:08;12.40;92.50
27803;DHT22;15182;48.174;11.562;2023-11-18T14:13:36;12.40;92.50
27803;DHT22;15182;48.174;11.562;2023-11-18T14:16:06;12.40;92.60
27803;DHT22;15182;48.174;11.562;2023-11-18T14:18:35;12.40;92.60
27803;DHT22;15182;48.174;11.562;2023-11-18T14:21:04;12.40;92.70
27803;DHT22;15182;48.174;11.562;2023-11-18T14:23:32;12.40;92.70
27803;DHT22;15182;48.174;11.562;2023-11-18T14:25:59;12.40;92.60
27803;DHT22;15182;48.174;11.562;2023-11-18T14:28:27;12.40;92.60
27803;DHT22;15182;48.174;11.562;2023-11-18T14:30:55;12.40;92.70
27803;DHT22;15182;48.174;11.562;2023-11-18T14:33:25;12.30;92.60
27803;DHT22;15182;48.174;11.562;2023-11-18T14:35:54;12.30;92.60
27803;DHT22;15182;48.174;11.562;2023-11-18T14:38:23;12.30;92.60
27803;DHT22;15182;48.174;11.562;2023-11-18T14:40:51;12.30;92.70
27803;DHT22;15182;48.174;11.562;2023-11-18T14:43:19;12.30;92.70
27803;DHT22;15182;48.174;11.562;2023-11-18T14:45:47;12.30;92.70
27803;DHT22;15182;48.174;11.562;2023-11-18T14:48:16;12.30;92.80
27803;DHT22;15182;48.174;11.562;2023-11-18T14:50:45;12.30;92.80
27803;DHT22;15182;48.174;11.562;2023-11-18T14:53:13;12.30;92.60
27803;DHT22;15182;48.174;11.562;2023-11-18T14:55:41;12.30;92.70
27803;DHT22;15182;48.174;11.562;2023-11-18T14:58:09;12.30;92.80
27803;DHT22;15182;48.174;11.562;2023-11-18T15:00:38;12.30;92.80
27803;DHT22;15182;48.174;11.562;2023-11-18T15:03:06;12.20;92.80
27803;DHT22;15182;48.174;11.562;2023-11-18T15:05:34;12.20;92.90
27803;DHT22;15182;48.174;11.562;2023-11-18T15:08:03;12.20;93.00
27803;DHT22;15182;48.174;11.562;2023-11-18T15:10:35;12.20;93.00
27803;DHT22;15182;48.174;11.562;2023-11-18T15:13:06;12.20;93.20
27803;DHT22;15182;48.174;11.562;2023-11-18T15:15:39;12.20;93.30
27803;DHT22;15182;48.174;11.562;2023-11-18T15:18:07;12.20;93.40
27803;DHT22;15182;48.174;11.562;2023-11-18T15:20:39;12.20;93.50
27803;DHT22;15182;48.174;11.562;2023-11-18T15:23:10;12.20;93.50
27803;DHT22;15182;48.174;11.562;2023-11-18T15:25:39;12.30;93.50
27803;DHT22;15182;48.174;11.562;2023-11-18T15:28:07;12.20;93.60
27803;DHT22;15182;48.174;11.562;2023-11-18T15:30:36;12.20;93.60
27803;DHT22;15182;48.174;11.562;2023-11-18T15:33:04;12.20;93.60
27803;DHT22;15182;48.174;11.562;2023-11-18T15:35:34;12.20;93.70
27803;DHT22;15182;48.174;11.562;2023-11-18T15:38:04;12.30;93.70
27803;DHT22;15182;48.174;11.562;2023-11-18T15:40:36;12.30;93.80
27803;DHT22;15182;48.174;11.562;2023-11-18T15:43:04;12.20;93.90
27803;DHT22;15182;48.174;11.562;2023-11-18T15:45:33;12.30;93.90
27803;DHT22;15182;48.174;11.562;2023-11-18T15:48:01;12.30;93.90
27803;DHT22;15182;48.174;11.562;2023-11-18T15:50:31;12.30;93.90